Time;durP1;ratioP1;P1;durP2;ratioP2;P2;SDS_P1;SDS_P2;PMS_P1;PMS_P2;Temp;Humidity;BMP_temperature;BMP_pressure;BME280_temperature;BME280_humidity;BME280_pressure;Samples;Min_cycle;Max_cycle;Signal;HPM_P1;HPM_P2
2023/02/11 00:00:08;;;;;;;11.55;7.18;;;;;;;;;;5012886;28;20579;-46
2023/02/11 00:02:34;;;;;;;13.55;7.57;;;;;;;;;;5007779;28;20176;-47
2023/02/11 00:05:01;;;;;;;11.48;6.85;;;;;;;;;;5005252;28;20208;-46
2023/02/11 00:07:31;;;;;;;9.23;6.60;;;;;;;;;;5009535;28;20599;-46
2023/02/11 00:09:57;;;;;;;10.27;6.57;;;;;;;;;;5015693;28;20200;-46
2023/02/11 00:12:23;;;;;;;10.18;6.95;;;;;;;;;;5012609;28;20223;-47
2023/02/11 00:14:49;;;;;;;8.80;6.55;;;;;;;;;;5002057;28;20549;-47
2023/02/11 00:17:15;;;;;;;10.32;6.72;;;;;;;;;;5005074;28;20216;-47
2023/02/11 00:19:41;;;;;;;9.63;6.65;;;;;;;;;;5015445;28;20195;-46
2023/02/11 00:22:07;;;;;;;9.93;6.53;;;;;;;;;;5009121;28;20267;-46
2023/02/11 00:24:32;;;;;;;9.90;6.10;;;;;;;;;;5012485;28;20204;-46
2023/02/11 00:26:58;;;;;;;10.07;6.45;;;;;;;;;;4995311;28;20215;-46
2023/02/11 00:29:24;;;;;;;8.15;5.82;;;;;;;;;;5005287;28;20216;-46
2023/02/11 00:31:50;;;;;;;9.25;6.25;;;;;;;;;;5014796;28;20219;-46
2023/02/11 00:34:16;;;;;;;8.80;5.78;;;;;;;;;;5023119;28;20459;-46
2023/02/11 00:36:42;;;;;;;8.43;5.75;;;;;;;;;;5020732;28;20188;-46
2023/02/11 00:39:08;;;;;;;10.63;5.95;;;;;;;;;;5014284;28;20199;-50
2023/02/11 00:41:34;;;;;;;9.18;5.95;;;;;;;;;;5000661;28;20184;-46
2023/02/11 00:44:03;;;;;;;8.90;6.35;;;;;;;;;;5010531;28;20453;-47
2023/02/11 00:46:29;;;;;;;9.35;5.60;;;;;;;;;;5011642;28;20208;-46
2023/02/11 00:48:56;;;;;;;8.30;5.80;;;;;;;;;;5003290;28;20194;-46
2023/02/11 00:51:23;;;;;;;7.07;5.43;;;;;;;;;;5011342;28;20184;-46
2023/02/11 00:53:49;;;;;;;7.18;5.43;;;;;;;;;;5007796;28;20211;-46
2023/02/11 00:56:14;;;;;;;8.88;5.78;;;;;;;;;;5014074;28;20177;-46
2023/02/11 00:58:40;;;;;;;7.28;5.45;;;;;;;;;;5014779;28;20512;-46
2023/02/11 01:01:06;;;;;;;6.85;5.13;;;;;;;;;;5012998;28;20548;-46
2023/02/11 01:03:32;;;;;;;7.53;5.03;;;;;;;;;;5006745;28;20177;-46
2023/02/11 01:05:58;;;;;;;9.07;5.90;;;;;;;;;;5013570;28;20259;-46
2023/02/11 01:08:24;;;;;;;7.30;5.25;;;;;;;;;;5013433;28;20602;-46
2023/02/11 01:10:54;;;;;;;7.25;5.40;;;;;;;;;;5010359;28;20592;-46
2023/02/11 01:13:20;;;;;;;7.28;5.35;;;;;;;;;;5013468;28;20590;-46
2023/02/11 01:15:46;;;;;;;7.63;4.95;;;;;;;;;;5007818;28;20184;-46
2023/02/11 01:18:12;;;;;;;7.18;5.38;;;;;;;;;;5007251;28;20184;-47
2023/02/11 01:20:38;;;;;;;7.28;5.22;;;;;;;;;;5014684;28;20575;-47
2023/02/11 01:23:04;;;;;;;7.47;5.43;;;;;;;;;;5017139;28;20259;-46
2023/02/11 01:25:30;;;;;;;8.93;5.35;;;;;;;;;;5018609;28;20242;-46
2023/02/11 01:27:56;;;;;;;7.13;5.32;;;;;;;;;;5009756;28;20211;-46
2023/02/11 01:30:22;;;;;;;9.32;5.43;;;;;;;;;;5010163;28;20685;-46
2023/02/11 01:32:48;;;;;;;7.38;4.60;;;;;;;;;;5017371;28;20279;-46
2023/02/11 01:35:14;;;;;;;7.70;5.53;;;;;;;;;;5017410;28;20267;-46
2023/02/11 01:37:40;;;;;;;8.23;5.57;;;;;;;;;;5017985;28;20283;-46
2023/02/11 01:40:10;;;;;;;7.07;4.82;;;;;;;;;;5018147;28;20180;-46
2023/02/11 01:42:36;;;;;;;6.10;4.80;;;;;;;;;;5010687;28;20180;-46
2023/02/11 01:45:22;;;;;;;6.70;4.88;;;;;;;;;;5010936;28;20200;-46
2023/02/11 01:47:48;;;;;;;7.22;4.72;;;;;;;;;;5007260;28;20204;-46
2023/02/11 01:50:14;;;;;;;5.78;4.95;;;;;;;;;;5010790;28;20246;-46
2023/02/11 01:52:40;;;;;;;5.97;4.45;;;;;;;;;;5017075;28;20180;-46
2023/02/11 01:57:58;;;;;;;7.20;4.55;;;;;;;;;;5011759;28;20194;-46
2023/02/11 02:00:34;;;;;;;5.95;5.00;;;;;;;;;;5013251;28;20195;-46
2023/02/11 02:03:18;;;;;;;6.38;5.18;;;;;;;;;;5008810;28;20173;-46
2023/02/11 02:05:47;;;;;;;6.68;4.70;;;;;;;;;;5017764;28;20195;-46
2023/02/11 02:08:37;;;;;;;5.60;4.60;;;;;;;;;;5017401;28;20215;-46
2023/02/11 02:11:03;;;;;;;6.28;4.57;;;;;;;;;;5011312;28;20177;-46
2023/02/11 02:13:30;;;;;;;6.30;4.78;;;;;;;;;;5010296;28;20199;-46
2023/02/11 02:15:56;;;;;;;6.05;4.47;;;;;;;;;;5017996;28;20183;-46
2023/02/11 02:18:35;;;;;;;5.47;4.68;;;;;;;;;;5017989;28;20192;-46
2023/02/11 02:21:17;;;;;;;5.63;4.30;;;;;;;;;;5016489;28;20192;-46
2023/02/11 02:24:02;;;;;;;6.13;4.38;;;;;;;;;;5011251;28;20184;-46
2023/02/11 02:26:37;;;;;;;6.88;4.45;;;;;;;;;;5017075;28;20243;-46
2023/02/11 02:29:10;;;;;;;5.75;4.18;;;;;;;;;;5013920;28;20195;-46
2023/02/11 02:31:36;;;;;;;5.68;4.40;;;;;;;;;;5009195;28;20187;-46
2023/02/11 02:34:06;;;;;;;5.97;4.40;;;;;;;;;;5017392;28;20189;-45
2023/02/11 02:36:39;;;;;;;6.60;4.53;;;;;;;;;;5025929;28;20231;-46
2023/02/11 02:39:25;;;;;;;5.15;4.10;;;;;;;;;;5017345;28;20560;-46
2023/02/11 02:41:53;;;;;;;5.05;4.05;;;;;;;;;;5011328;28;20278;-46
2023/02/11 02:44:19;;;;;;;4.90;3.80;;;;;;;;;;5009290;28;20213;-45
2023/02/11 02:46:45;;;;;;;5.25;4.13;;;;;;;;;;5016177;28;20268;-46
2023/02/11 02:49:12;;;;;;;4.50;4.10;;;;;;;;;;5016996;28;20238;-46
2023/02/11 02:51:47;;;;;;;5.25;4.20;;;;;;;;;;5016392;28;20223;-46
2023/02/11 02:54:25;;;;;;;4.65;3.78;;;;;;;;;;5009007;28;20255;-45
2023/02/11 02:56:55;;;;;;;5.28;4.00;;;;;;;;;;5016687;28;20456;-46
2023/02/11 02:59:24;;;;;;;4.72;4.10;;;;;;;;;;5015222;28;20258;-46
2023/02/11 03:02:16;;;;;;;4.80;3.72;;;;;;;;;;5015580;28;20197;-45
2023/02/11 03:04:48;;;;;;;5.50;3.97;;;;;;;;;;5002561;28;20429;-46
2023/02/11 03:07:23;;;;;;;4.45;3.83;;;;;;;;;;5017868;28;20470;-46
2023/02/11 03:09:48;;;;;;;4.70;4.03;;;;;;;;;;5009265;28;20331;-45
2023/02/11 03:12:15;;;;;;;4.22;3.83;;;;;;;;;;5008181;28;20549;-46
2023/02/11 03:14:41;;;;;;;5.53;4.28;;;;;;;;;;5009729;28;20187;-46
2023/02/11 03:17:08;;;;;;;5.30;4.35;;;;;;;;;;5011128;28;20184;-45
2023/02/11 03:19:36;;;;;;;5.03;3.95;;;;;;;;;;5016218;28;20188;-46
2023/02/11 03:22:04;;;;;;;5.30;4.00;;;;;;;;;;5011961;28;20572;-46
2023/02/11 03:24:32;;;;;;;4.20;3.55;;;;;;;;;;5002358;28;20472;-46
2023/02/11 03:27:00;;;;;;;4.47;3.83;;;;;;;;;;5010722;28;20209;-45
2023/02/11 03:29:35;;;;;;;3.92;3.28;;;;;;;;;;5014633;28;20250;-46
2023/02/11 03:32:11;;;;;;;4.43;3.78;;;;;;;;;;5012145;28;20191;-46
2023/02/11 03:34:43;;;;;;;3.78;3.28;;;;;;;;;;5018954;28;20167;-46
2023/02/11 03:37:12;;;;;;;4.68;3.88;;;;;;;;;;5016939;28;20223;-47
2023/02/11 03:39:40;;;;;;;5.07;3.80;;;;;;;;;;5010957;28;20185;-46
2023/02/11 03:42:08;;;;;;;4.35;3.95;;;;;;;;;;5015453;28;20184;-46
2023/02/11 03:44:36;;;;;;;5.57;3.88;;;;;;;;;;5014656;28;20188;-46
2023/02/11 03:47:04;;;;;;;4.78;3.80;;;;;;;;;;5008214;28;20224;-46
2023/02/11 03:49:31;;;;;;;4.53;3.88;;;;;;;;;;5007456;28;20227;-46
2023/02/11 03:51:58;;;;;;;3.97;3.58;;;;;;;;;;5005792;28;20600;-46
2023/02/11 03:54:27;;;;;;;4.53;3.63;;;;;;;;;;5013475;28;20205;-46
2023/02/11 03:56:54;;;;;;;3.85;3.28;;;;;;;;;;5014893;28;20238;-46
2023/02/11 03:59:20;;;;;;;3.83;3.30;;;;;;;;;;5005574;28;20258;-46
2023/02/11 04:01:46;;;;;;;4.50;3.88;;;;;;;;;;5010629;28;20185;-46
2023/02/11 04:04:12;;;;;;;3.92;3.53;;;;;;;;;;5007776;28;20249;-46
2023/02/11 04:06:38;;;;;;;5.25;3.85;;;;;;;;;;5012996;28;20232;-46
2023/02/11 04:09:05;;;;;;;4.35;3.90;;;;;;;;;;5004936;28;20405;-46
2023/02/11 04:11:31;;;;;;;4.63;3.45;;;;;;;;;;5007071;28;20181;-46
2023/02/11 04:13:56;;;;;;;3.65;3.33;;;;;;;;;;5013560;28;20183;-47
2023/02/11 04:16:22;;;;;;;4.55;3.53;;;;;;;;;;5015834;28;20483;-45
2023/02/11 04:18:48;;;;;;;4.25;3.55;;;;;;;;;;5010767;28;20284;-45
2023/02/11 04:21:14;;;;;;;4.65;3.65;;;;;;;;;;5012130;28;20234;-45
2023/02/11 04:23:40;;;;;;;4.10;3.58;;;;;;;;;;5015873;28;20607;-46
2023/02/11 04:26:06;;;;;;;4.40;3.40;;;;;;;;;;5009411;28;20177;-46
2023/02/11 04:28:33;;;;;;;4.03;3.35;;;;;;;;;;5015382;28;20215;-45
2023/02/11 04:30:59;;;;;;;4.15;3.65;;;;;;;;;;5013200;28;20176;-46
2023/02/11 04:33:25;;;;;;;4.20;3.28;;;;;;;;;;5010983;28;20180;-46
2023/02/11 04:35:51;;;;;;;5.03;3.30;;;;;;;;;;5023611;28;20563;-45
2023/02/11 04:38:17;;;;;;;4.50;3.33;;;;;;;;;;5014273;28;20192;-46
2023/02/11 04:40:43;;;;;;;4.10;3.35;;;;;;;;;;5015057;28;20240;-46
2023/02/11 04:43:09;;;;;;;4.05;3.20;;;;;;;;;;5005518;28;20177;-46
2023/02/11 04:45:35;;;;;;;3.25;2.95;;;;;;;;;;5012718;28;20185;-46
2023/02/11 04:48:02;;;;;;;3.78;3.13;;;;;;;;;;5010580;28;20607;-46
2023/02/11 04:50:27;;;;;;;4.43;3.25;;;;;;;;;;5013800;28;20449;-46
2023/02/11 04:52:53;;;;;;;3.20;2.90;;;;;;;;;;5013203;28;20198;-46
2023/02/11 04:55:19;;;;;;;4.22;3.05;;;;;;;;;;5011954;28;20180;-46
2023/02/11 04:57:45;;;;;;;4.15;2.88;;;;;;;;;;5013305;28;20199;-46
2023/02/11 05:00:11;;;;;;;6.30;3.20;;;;;;;;;;5014461;28;20181;-46
2023/02/11 05:02:37;;;;;;;4.97;3.10;;;;;;;;;;5006047;28;20291;-46
2023/02/11 05:05:04;;;;;;;5.95;3.08;;;;;;;;;;5004681;28;20616;-46
2023/02/11 05:07:30;;;;;;;7.47;3.42;;;;;;;;;;5019882;28;20466;-46
2023/02/11 05:09:55;;;;;;;5.15;3.15;;;;;;;;;;5014409;28;20303;-46
2023/02/11 05:12:21;;;;;;;4.93;3.45;;;;;;;;;;5013625;28;20216;-47
2023/02/11 05:14:47;;;;;;;6.85;3.35;;;;;;;;;;5007724;28;20230;-47
2023/02/11 05:17:13;;;;;;;7.88;3.95;;;;;;;;;;5010065;28;20189;-46
2023/02/11 05:19:40;;;;;;;6.55;3.75;;;;;;;;;;5013665;28;20192;-46
2023/02/11 05:22:06;;;;;;;7.78;3.97;;;;;;;;;;5013196;28;20458;-46
2023/02/11 05:24:32;;;;;;;6.80;3.92;;;;;;;;;;5014251;28;20207;-47
2023/02/11 05:26:58;;;;;;;8.55;4.25;;;;;;;;;;5009349;28;20209;-46
2023/02/11 05:29:24;;;;;;;8.25;4.45;;;;;;;;;;5005792;28;20188;-46
2023/02/11 05:31:50;;;;;;;8.55;4.25;;;;;;;;;;5010568;28;20185;-47
2023/02/11 05:34:16;;;;;;;6.55;4.13;;;;;;;;;;5007694;28;20673;-46
2023/02/11 05:36:42;;;;;;;6.97;3.67;;;;;;;;;;5018069;28;20185;-46
2023/02/11 05:39:08;;;;;;;5.72;4.00;;;;;;;;;;5014467;28;20428;-46
2023/02/11 05:41:34;;;;;;;5.85;3.80;;;;;;;;;;5011755;28;20215;-46
2023/02/11 05:44:00;;;;;;;5.90;3.60;;;;;;;;;;5009617;28;20296;-46
2023/02/11 05:46:25;;;;;;;5.65;3.78;;;;;;;;;;5012632;28;20188;-46
2023/02/11 05:48:51;;;;;;;6.82;4.03;;;;;;;;;;5010196;28;20180;-47
2023/02/11 05:51:17;;;;;;;6.45;3.58;;;;;;;;;;5014721;28;20234;-47
2023/02/11 05:53:43;;;;;;;6.22;3.67;;;;;;;;;;5007023;28;20199;-47
2023/02/11 05:56:10;;;;;;;5.13;4.18;;;;;;;;;;5013922;28;20173;-47
2023/02/11 05:58:37;;;;;;;7.15;3.80;;;;;;;;;;5006166;28;20189;-47
2023/02/11 06:01:03;;;;;;;5.72;3.35;;;;;;;;;;5009606;28;20455;-46
2023/02/11 06:03:29;;;;;;;5.57;3.38;;;;;;;;;;5011316;28;20271;-47
2023/02/11 06:05:55;;;;;;;6.43;4.05;;;;;;;;;;5008947;28;20184;-47
2023/02/11 06:08:21;;;;;;;5.18;3.60;;;;;;;;;;5010426;28;20240;-47
2023/02/11 06:10:47;;;;;;;5.78;3.50;;;;;;;;;;5017793;28;20173;-46
2023/02/11 06:13:13;;;;;;;5.75;3.80;;;;;;;;;;5013627;28;20185;-46
2023/02/11 06:15:38;;;;;;;5.72;3.55;;;;;;;;;;5017745;28;20172;-46
2023/02/11 06:18:05;;;;;;;5.32;3.97;;;;;;;;;;5017377;28;20203;-46
2023/02/11 06:20:31;;;;;;;7.72;4.10;;;;;;;;;;5017148;28;20249;-46
2023/02/11 06:22:57;;;;;;;5.88;3.75;;;;;;;;;;5008561;28;20191;-46
2023/02/11 06:25:23;;;;;;;4.85;3.10;;;;;;;;;;5003549;28;20185;-46
2023/02/11 06:27:49;;;;;;;4.82;3.45;;;;;;;;;;5017631;28;20454;-46
2023/02/11 06:30:15;;;;;;;3.95;3.40;;;;;;;;;;5016457;28;20180;-46
2023/02/11 06:32:41;;;;;;;4.45;3.47;;;;;;;;;;5017745;28;20172;-46
2023/02/11 06:35:07;;;;;;;6.18;3.78;;;;;;;;;;5025384;28;20458;-46
2023/02/11 06:37:34;;;;;;;4.10;3.38;;;;;;;;;;5024512;28;20212;-46
2023/02/11 06:40:00;;;;;;;4.57;3.60;;;;;;;;;;5015287;28;20243;-46
2023/02/11 06:42:25;;;;;;;4.93;3.58;;;;;;;;;;5016496;28;20563;-46
2023/02/11 06:44:51;;;;;;;6.60;3.65;;;;;;;;;;5011676;28;20507;-46
2023/02/11 06:47:17;;;;;;;4.50;3.70;;;;;;;;;;5012887;28;20204;-46
2023/02/11 06:49:43;;;;;;;4.82;3.60;;;;;;;;;;5013631;28;20543;-47
2023/02/11 06:52:09;;;;;;;3.63;3.00;;;;;;;;;;5015895;28;20176;-46
2023/02/11 06:54:35;;;;;;;5.00;3.38;;;;;;;;;;5015271;28;20192;-46
2023/02/11 06:57:01;;;;;;;5.28;3.22;;;;;;;;;;5015762;28;20473;-46
2023/02/11 06:59:27;;;;;;;4.30;3.45;;;;;;;;;;5015397;28;20238;-46
2023/02/11 07:01:53;;;;;;;4.32;3.50;;;;;;;;;;5011400;28;20226;-46
2023/02/11 07:04:19;;;;;;;4.60;3.10;;;;;;;;;;5008134;28;20556;-46
2023/02/11 07:06:45;;;;;;;4.22;3.47;;;;;;;;;;5004859;28;20268;-46
2023/02/11 07:09:10;;;;;;;3.08;2.78;;;;;;;;;;5008914;28;20264;-46
2023/02/11 07:11:36;;;;;;;4.38;3.13;;;;;;;;;;5015835;28;20191;-46
2023/02/11 07:14:04;;;;;;;4.25;3.13;;;;;;;;;;5014144;28;20180;-46
2023/02/11 07:16:30;;;;;;;3.60;3.25;;;;;;;;;;5015151;28;20568;-46
2023/02/11 07:18:56;;;;;;;3.72;3.08;;;;;;;;;;5013219;28;20268;-46
2023/02/11 07:21:23;;;;;;;4.47;2.85;;;;;;;;;;5009523;28;20199;-46
2023/02/11 07:23:49;;;;;;;4.43;3.08;;;;;;;;;;5010289;28;20627;-46
2023/02/11 07:26:16;;;;;;;3.92;3.20;;;;;;;;;;5011674;28;20184;-46
2023/02/11 07:28:43;;;;;;;3.35;2.90;;;;;;;;;;5010439;28;20610;-46
2023/02/11 07:31:10;;;;;;;4.38;3.50;;;;;;;;;;5014390;28;20238;-46
2023/02/11 07:33:36;;;;;;;3.40;3.10;;;;;;;;;;5017315;28;20188;-46
2023/02/11 07:36:03;;;;;;;5.25;3.58;;;;;;;;;;5021007;28;20181;-46
2023/02/11 07:38:28;;;;;;;3.60;3.25;;;;;;;;;;5011497;28;20243;-46
2023/02/11 07:40:54;;;;;;;6.47;3.10;;;;;;;;;;5016441;28;20231;-47
2023/02/11 07:43:20;;;;;;;4.35;3.13;;;;;;;;;;5005335;28;20917;-47
2023/02/11 07:45:46;;;;;;;5.00;3.28;;;;;;;;;;5006441;28;20470;-46
2023/02/11 07:48:12;;;;;;;3.15;2.75;;;;;;;;;;5007822;28;20291;-46
2023/02/11 07:50:38;;;;;;;3.30;3.00;;;;;;;;;;5016157;28;20315;-46
2023/02/11 07:53:04;;;;;;;3.17;2.72;;;;;;;;;;5012208;28;20208;-46
2023/02/11 07:55:30;;;;;;;3.95;3.30;;;;;;;;;;5010519;28;20191;-46
2023/02/11 07:57:56;;;;;;;3.58;3.05;;;;;;;;;;5012054;28;20220;-46
2023/02/11 08:00:22;;;;;;;4.53;3.20;;;;;;;;;;5015261;28;20196;-46
2023/02/11 08:02:47;;;;;;;3.42;3.13;;;;;;;;;;5011733;28;20184;-46
2023/02/11 08:05:13;;;;;;;3.92;3.22;;;;;;;;;;5007049;28;20212;-46
2023/02/11 08:07:39;;;;;;;4.45;3.05;;;;;;;;;;5013017;28;20212;-46
2023/02/11 08:10:05;;;;;;;4.25;3.08;;;;;;;;;;5016172;28;20188;-46
2023/02/11 08:12:31;;;;;;;3.83;2.90;;;;;;;;;;5015512;28;20242;-46
2023/02/11 08:14:57;;;;;;;3.75;3.17;;;;;;;;;;5015958;28;20169;-46
2023/02/11 08:17:23;;;;;;;3.83;2.85;;;;;;;;;;5015351;28;20196;-46
2023/02/11 08:19:49;;;;;;;3.13;2.80;;;;;;;;;;5014939;28;20471;-46
2023/02/11 08:22:15;;;;;;;3.78;2.80;;;;;;;;;;5006540;28;20212;-46
2023/02/11 08:24:41;;;;;;;2.95;2.63;;;;;;;;;;5012019;28;20235;-47
2023/02/11 08:27:07;;;;;;;3.30;3.00;;;;;;;;;;5010862;28;20212;-47
2023/02/11 08:29:33;;;;;;;3.35;3.00;;;;;;;;;;5012168;28;20195;-46
2023/02/11 08:31:58;;;;;;;3.55;3.00;;;;;;;;;;5009512;28;20184;-46
2023/02/11 08:34:24;;;;;;;3.40;2.97;;;;;;;;;;5022787;28;20219;-46
2023/02/11 08:36:50;;;;;;;3.80;3.00;;;;;;;;;;5023472;28;20434;-46
2023/02/11 08:39:20;;;;;;;3.58;2.72;;;;;;;;;;5010340;28;20181;-47
2023/02/11 08:41:47;;;;;;;3.05;2.70;;;;;;;;;;5014150;28;20552;-47
2023/02/11 08:44:13;;;;;;;3.28;2.95;;;;;;;;;;5011293;28;20597;-46
2023/02/11 08:46:39;;;;;;;4.32;3.05;;;;;;;;;;5003136;28;20188;-46
2023/02/11 08:49:05;;;;;;;3.28;2.97;;;;;;;;;;5010804;28;20184;-46
2023/02/11 08:51:31;;;;;;;3.38;2.90;;;;;;;;;;5012463;28;20188;-46
2023/02/11 08:53:57;;;;;;;4.25;3.00;;;;;;;;;;5009118;28;20246;-46
2023/02/11 08:56:23;;;;;;;4.63;3.08;;;;;;;;;;5014508;28;20188;-46
2023/02/11 08:58:50;;;;;;;4.07;3.20;;;;;;;;;;5008827;28;20189;-47
2023/02/11 09:01:17;;;;;;;3.38;3.08;;;;;;;;;;5011651;28;20192;-47
2023/02/11 09:03:43;;;;;;;2.70;2.50;;;;;;;;;;5006992;28;20192;-46
2023/02/11 09:06:10;;;;;;;4.22;3.15;;;;;;;;;;5018369;28;20199;-46
2023/02/11 09:08:40;;;;;;;3.35;2.80;;;;;;;;;;5006266;28;20236;-46
2023/02/11 09:11:06;;;;;;;4.15;3.40;;;;;;;;;;5012495;28;20610;-46
2023/02/11 09:13:32;;;;;;;3.10;2.70;;;;;;;;;;5003467;28;20219;-46
2023/02/11 09:15:59;;;;;;;3.20;2.90;;;;;;;;;;5008970;28;20208;-46
2023/02/11 09:18:25;;;;;;;3.78;3.22;;;;;;;;;;5000051;28;20185;-46
2023/02/11 09:20:51;;;;;;;3.55;3.20;;;;;;;;;;5012133;28;20626;-46
2023/02/11 09:23:17;;;;;;;3.72;3.00;;;;;;;;;;5003969;28;20181;-46
2023/02/11 09:25:43;;;;;;;3.30;2.90;;;;;;;;;;5021677;28;20181;-46
2023/02/11 09:28:10;;;;;;;3.88;3.20;;;;;;;;;;5007532;28;20516;-46
2023/02/11 09:30:36;;;;;;;4.25;3.25;;;;;;;;;;5008788;28;20184;-46
2023/02/11 09:33:02;;;;;;;3.05;2.72;;;;;;;;;;5001809;28;20597;-46
2023/02/11 09:35:28;;;;;;;3.70;3.05;;;;;;;;;;5024028;28;20182;-46
2023/02/11 09:37:54;;;;;;;2.85;2.65;;;;;;;;;;5019462;28;20231;-46
2023/02/11 09:40:20;;;;;;;3.28;2.92;;;;;;;;;;5013142;28;20259;-46
2023/02/11 09:42:50;;;;;;;3.28;2.97;;;;;;;;;;5003753;28;20223;-46
2023/02/11 09:45:21;;;;;;;3.38;3.08;;;;;;;;;;5002577;28;20192;-46
2023/02/11 09:47:49;;;;;;;3.03;2.60;;;;;;;;;;5015897;28;20205;-46
2023/02/11 09:50:19;;;;;;;3.70;3.10;;;;;;;;;;5017983;28;20204;-46
2023/02/11 09:52:47;;;;;;;2.95;2.65;;;;;;;;;;5017653;28;20223;-46
2023/02/11 09:55:36;;;;;;;2.88;2.50;;;;;;;;;;5016618;28;20204;-46
2023/02/11 09:58:03;;;;;;;3.17;2.58;;;;;;;;;;5011201;28;20184;-46
2023/02/11 10:00:52;;;;;;;3.40;3.08;;;;;;;;;;5016512;28;20450;-46
2023/02/11 10:03:25;;;;;;;4.15;3.03;;;;;;;;;;5006467;28;20193;-46
2023/02/11 10:06:09;;;;;;;2.53;2.33;;;;;;;;;;5020261;28;20231;-46
2023/02/11 10:09:01;;;;;;;4.05;3.15;;;;;;;;;;5012624;28;20211;-46
2023/02/11 10:11:30;;;;;;;3.13;2.83;;;;;;;;;;4993004;28;20211;-46
2023/02/11 10:14:15;;;;;;;3.22;2.90;;;;;;;;;;5010295;28;20582;-46
2023/02/11 10:16:59;;;;;;;3.83;3.08;;;;;;;;;;5017988;28;20214;-46
2023/02/11 10:19:28;;;;;;;3.20;2.70;;;;;;;;;;5016691;28;20578;-46
2023/02/11 10:22:03;;;;;;;3.20;2.70;;;;;;;;;;5009199;28;20268;-46
2023/02/11 10:24:29;;;;;;;2.90;2.60;;;;;;;;;;5011467;28;20437;-46
2023/02/11 10:26:55;;;;;;;2.85;2.63;;;;;;;;;;5016929;28;20250;-46
2023/02/11 10:29:26;;;;;;;3.58;3.10;;;;;;;;;;5016758;28;20247;-46
2023/02/11 10:31:52;;;;;;;4.03;2.70;;;;;;;;;;5017701;28;20243;-47
2023/02/11 10:34:18;;;;;;;3.78;2.88;;;;;;;;;;5025101;28;20540;-46
2023/02/11 10:36:44;;;;;;;3.03;2.72;;;;;;;;;;5021172;28;20192;-46
2023/02/11 10:39:12;;;;;;;2.60;2.40;;;;;;;;;;5017182;28;20548;-46
2023/02/11 10:41:40;;;;;;;3.17;2.80;;;;;;;;;;5011072;28;20184;-46
2023/02/11 10:44:07;;;;;;;2.78;2.58;;;;;;;;;;5010810;28;20427;-46
2023/02/11 10:46:36;;;;;;;3.50;2.90;;;;;;;;;;5014739;28;20189;-46
2023/02/11 10:49:02;;;;;;;3.53;2.78;;;;;;;;;;5010878;28;20174;-46
2023/02/11 10:51:32;;;;;;;3.67;2.90;;;;;;;;;;5014169;28;20183;-46
2023/02/11 10:54:04;;;;;;;2.88;2.65;;;;;;;;;;5010428;28;20605;-46
2023/02/11 10:56:31;;;;;;;2.72;2.40;;;;;;;;;;5014843;28;20189;-46
2023/02/11 10:59:01;;;;;;;3.33;2.88;;;;;;;;;;5013968;28;20259;-46
2023/02/11 11:01:46;;;;;;;3.00;2.70;;;;;;;;;;5015316;28;20296;-46
2023/02/11 11:04:41;;;;;;;2.63;2.42;;;;;;;;;;5017963;28;20211;-46
2023/02/11 11:07:10;;;;;;;3.10;2.70;;;;;;;;;;5001419;28;20307;-46
2023/02/11 11:09:50;;;;;;;3.25;2.80;;;;;;;;;;5007669;28;20177;-46
2023/02/11 11:12:31;;;;;;;3.17;2.70;;;;;;;;;;5010655;28;20599;-46
2023/02/11 11:14:58;;;;;;;3.28;2.78;;;;;;;;;;5012381;28;20180;-46
2023/02/11 11:17:27;;;;;;;3.03;2.45;;;;;;;;;;5013124;28;20185;-46
2023/02/11 11:19:54;;;;;;;4.70;2.75;;;;;;;;;;5006317;28;20191;-46
2023/02/11 11:22:21;;;;;;;2.60;2.40;;;;;;;;;;5006745;28;20443;-46
2023/02/11 11:24:53;;;;;;;2.70;2.50;;;;;;;;;;5009693;28;20594;-46
2023/02/11 11:27:20;;;;;;;3.20;2.90;;;;;;;;;;5013319;28;20269;-46
2023/02/11 11:29:48;;;;;;;2.85;2.63;;;;;;;;;;5014047;28;20223;-46
2023/02/11 11:32:22;;;;;;;2.85;2.55;;;;;;;;;;5013784;28;20185;-46
2023/02/11 11:34:54;;;;;;;3.08;2.67;;;;;;;;;;5018487;28;20665;-46
2023/02/11 11:37:22;;;;;;;3.00;2.70;;;;;;;;;;5017314;28;20596;-46
2023/02/11 11:39:54;;;;;;;2.80;2.60;;;;;;;;;;5015977;28;20275;-46
2023/02/11 11:42:25;;;;;;;2.80;2.60;;;;;;;;;;5015506;28;20214;-46
2023/02/11 11:45:01;;;;;;;3.03;2.72;;;;;;;;;;5014446;28;20196;-46
2023/02/11 11:47:30;;;;;;;2.95;2.65;;;;;;;;;;5012262;28;20200;-46
2023/02/11 11:50:08;;;;;;;2.70;2.50;;;;;;;;;;5005725;28;20429;-46
2023/02/11 11:52:39;;;;;;;2.50;2.30;;;;;;;;;;5014610;28;20208;-46
2023/02/11 11:55:13;;;;;;;3.00;2.60;;;;;;;;;;5016037;28;20445;-46
2023/02/11 11:57:39;;;;;;;3.30;3.00;;;;;;;;;;5014363;28;20168;-46
2023/02/11 12:00:13;;;;;;;3.10;2.80;;;;;;;;;;5015241;28;20191;-46
2023/02/11 12:02:39;;;;;;;3.10;2.80;;;;;;;;;;5013304;28;20199;-46
2023/02/11 12:05:24;;;;;;;3.45;2.80;;;;;;;;;;5004728;28;20548;-46
2023/02/11 12:07:52;;;;;;;2.83;2.60;;;;;;;;;;5001967;28;20196;-46
2023/02/11 12:10:28;;;;;;;4.40;2.85;;;;;;;;;;5011674;28;20276;-46
2023/02/11 12:12:54;;;;;;;3.03;2.70;;;;;;;;;;5011147;28;20593;-46
2023/02/11 12:15:26;;;;;;;3.22;2.72;;;;;;;;;;5015835;28;20197;-46
2023/02/11 12:18:00;;;;;;;3.95;2.67;;;;;;;;;;5015823;28;20195;-46
2023/02/11 12:20:39;;;;;;;3.03;2.72;;;;;;;;;;5014275;28;20237;-46
2023/02/11 12:23:14;;;;;;;3.22;2.90;;;;;;;;;;5008092;28;20282;-46
2023/02/11 12:25:51;;;;;;;3.20;2.90;;;;;;;;;;5015426;28;20188;-46
2023/02/11 12:28:17;;;;;;;3.13;2.83;;;;;;;;;;5014468;28;20218;-47
2023/02/11 12:30:53;;;;;;;3.00;2.70;;;;;;;;;;5013089;28;20180;-47
2023/02/11 12:33:33;;;;;;;3.05;2.50;;;;;;;;;;5013978;28;20177;-46
2023/02/11 12:36:03;;;;;;;4.25;3.05;;;;;;;;;;5026291;28;20176;-46
2023/02/11 12:38:38;;;;;;;2.80;2.60;;;;;;;;;;5009097;28;20213;-46
2023/02/11 12:41:10;;;;;;;2.60;2.40;;;;;;;;;;5014288;28;20266;-46
2023/02/11 12:43:38;;;;;;;2.67;2.47;;;;;;;;;;5005364;28;20371;-46
2023/02/11 12:46:06;;;;;;;3.05;2.72;;;;;;;;;;5008274;28;20193;-46
2023/02/11 12:48:58;;;;;;;2.67;2.47;;;;;;;;;;5013264;28;20208;-46
2023/02/11 12:51:44;;;;;;;3.17;2.88;;;;;;;;;;5013039;28;20220;-46
2023/02/11 12:54:10;;;;;;;2.83;2.53;;;;;;;;;;5011629;28;20195;-46
2023/02/11 12:56:39;;;;;;;3.05;2.60;;;;;;;;;;5010493;28;20203;-46
2023/02/11 12:59:10;;;;;;;2.90;2.70;;;;;;;;;;5013079;28;20538;-46
2023/02/11 13:01:38;;;;;;;2.72;2.53;;;;;;;;;;5007477;28;20181;-46
2023/02/11 13:04:20;;;;;;;2.58;2.38;;;;;;;;;;5009123;28;20185;-46
2023/02/11 13:06:51;;;;;;;2.70;2.50;;;;;;;;;;5005455;28;20177;-46
2023/02/11 13:09:29;;;;;;;2.72;2.53;;;;;;;;;;5009361;28;20262;-47
2023/02/11 13:11:56;;;;;;;2.80;2.60;;;;;;;;;;5009402;28;20183;-47
2023/02/11 13:14:31;;;;;;;2.85;2.55;;;;;;;;;;5010515;28;20184;-46
2023/02/11 13:16:57;;;;;;;2.75;2.53;;;;;;;;;;5011739;28;20219;-46
2023/02/11 13:19:34;;;;;;;2.80;2.60;;;;;;;;;;5011402;28;20209;-46
2023/02/11 13:22:16;;;;;;;3.15;2.85;;;;;;;;;;5007383;28;20184;-46
2023/02/11 13:24:43;;;;;;;2.50;2.30;;;;;;;;;;5008605;28;20239;-46
2023/02/11 13:27:30;;;;;;;2.65;2.42;;;;;;;;;;4978629;28;998176;-46
2023/02/11 13:30:18;;;;;;;3.13;2.70;;;;;;;;;;5010054;28;21738;-46
2023/02/11 13:32:54;;;;;;;3.10;2.80;;;;;;;;;;5006588;28;20470;-46
2023/02/11 13:35:33;;;;;;;2.75;2.47;;;;;;;;;;5024222;28;20234;-46
2023/02/11 13:38:00;;;;;;;3.08;2.78;;;;;;;;;;5012171;28;20208;-46
2023/02/11 13:40:28;;;;;;;3.00;2.70;;;;;;;;;;5014432;28;20223;-46
2023/02/11 13:42:55;;;;;;;2.60;2.40;;;;;;;;;;5013852;28;20192;-46
2023/02/11 13:45:28;;;;;;;2.83;2.63;;;;;;;;;;5014286;28;20188;-46
2023/02/11 13:47:58;;;;;;;3.17;2.88;;;;;;;;;;5009682;28;20297;-46
2023/02/11 13:50:25;;;;;;;2.78;2.58;;;;;;;;;;5012477;28;20212;-46
2023/02/11 13:52:57;;;;;;;2.70;2.50;;;;;;;;;;5012954;28;20184;-47
2023/02/11 13:55:25;;;;;;;2.78;2.10;;;;;;;;;;5011601;28;20187;-47
2023/02/11 13:58:06;;;;;;;2.70;2.50;;;;;;;;;;5012450;28;20184;-47
2023/02/11 14:00:35;;;;;;;2.63;2.42;;;;;;;;;;5006176;28;20244;-46
2023/02/11 14:09:10;;;;;;;2.38;2.17;;;;;;;;;;5011397;28;20284;-46
2023/02/11 14:11:47;;;;;;;2.70;2.50;;;;;;;;;;5003885;28;20207;-46
2023/02/11 14:14:16;;;;;;;2.72;2.50;;;;;;;;;;5010291;28;20176;-46
2023/02/11 14:16:57;;;;;;;2.47;2.28;;;;;;;;;;5006040;28;20489;-46
2023/02/11 14:19:40;;;;;;;2.63;2.25;;;;;;;;;;5012405;28;20632;-46
2023/02/11 14:22:14;;;;;;;2.80;2.60;;;;;;;;;;5006285;28;20188;-46
2023/02/11 14:25:00;;;;;;;2.78;2.55;;;;;;;;;;5003250;28;20197;-46
2023/02/11 14:27:36;;;;;;;2.72;2.53;;;;;;;;;;5011051;28;20232;-47
2023/02/11 14:30:11;;;;;;;2.80;2.60;;;;;;;;;;5017452;28;20187;-46
2023/02/11 14:32:46;;;;;;;4.10;2.50;;;;;;;;;;5017741;28;20180;-47
2023/02/11 14:35:19;;;;;;;2.53;2.33;;;;;;;;;;5023359;28;20188;-47
2023/02/11 14:38:03;;;;;;;2.50;2.30;;;;;;;;;;5008465;28;20275;-47
2023/02/11 14:40:32;;;;;;;3.10;2.58;;;;;;;;;;5014970;28;20195;-46
2023/02/11 14:43:03;;;;;;;3.13;2.83;;;;;;;;;;5012681;28;20181;-46
2023/02/11 14:45:29;;;;;;;2.60;2.30;;;;;;;;;;5015609;28;20188;-47
2023/02/11 14:48:14;;;;;;;2.63;2.42;;;;;;;;;;5015773;28;20510;-46
2023/02/11 14:50:45;;;;;;;2.72;2.53;;;;;;;;;;5016851;28;20199;-46
2023/02/11 14:53:16;;;;;;;2.67;2.47;;;;;;;;;;5012390;28;20259;-47
2023/02/11 14:55:43;;;;;;;2.60;2.40;;;;;;;;;;5010204;28;20195;-46
2023/02/11 14:58:42;;;;;;;2.40;2.20;;;;;;;;;;5011085;28;20595;-46
2023/02/11 15:01:31;;;;;;;2.45;2.25;;;;;;;;;;4987362;28;20205;-47
2023/02/11 15:03:57;;;;;;;2.42;2.22;;;;;;;;;;5006155;28;20580;-47